sensor_id;sensor_type;location;lat;lon;timestamp;pressure;altitude;pressure_sealevel;temperature;humidity
68489;BME280;55481;48.764;8.936;2023-05-29T00:01:14;97080;;;12;53
68489;BME280;55481;48.764;8.936;2023-05-29T00:03:45;97080;;;11.9;53
68489;BME280;55481;48.764;8.936;2023-05-29T00:08:53;97080;;;11.9;53
68489;BME280;55481;48.764;8.936;2023-05-29T00:11:23;97080;;;11.8;53
68489;BME280;55481;48.764;8.936;2023-05-29T00:13:54;97090;;;11.6;54
68489;BME280;55481;48.764;8.936;2023-05-29T00:16:25;97090;;;11.4;54
68489;BME280;55481;48.764;8.936;2023-05-29T00:19:05;97090;;;11.5;54
68489;BME280;55481;48.764;8.936;2023-05-29T00:21:40;97090;;;11.4;54
68489;BME280;55481;48.764;8.936;2023-05-29T00:26:26;97080;;;11.5;53.5
68489;BME280;55481;48.764;8.936;2023-05-29T00:28:57;97080;;;11.3;54
68489;BME280;55481;48.764;8.936;2023-05-29T00:31:28;97070;;;11.4;54
68489;BME280;55481;48.764;8.936;2023-05-29T00:33:52;97070;;;11.5;53.5
68489;BME280;55481;48.764;8.936;2023-05-29T00:36:23;97070;;;11.4;54
68489;BME280;55481;48.764;8.936;2023-05-29T00:38:53;97070;;;11.3;54
68489;BME280;55481;48.764;8.936;2023-05-29T00:41:24;97070;;;11.3;54
68489;BME280;55481;48.764;8.936;2023-05-29T00:48:58;97070;;;11.4;54
68489;BME280;55481;48.764;8.936;2023-05-29T00:54:05;97060;;;11.5;53.5
68489;BME280;55481;48.764;8.936;2023-05-29T00:56:38;97060;;;11.4;54
68489;BME280;55481;48.764;8.936;2023-05-29T00:59:06;97060;;;11.2;54.5
68489;BME280;55481;48.764;8.936;2023-05-29T01:01:37;97060;;;11.2;54.5
68489;BME280;55481;48.764;8.936;2023-05-29T01:04:08;97060;;;11.3;54
68489;BME280;55481;48.764;8.936;2023-05-29T01:06:46;97060;;;11.2;54.5
68489;BME280;55481;48.764;8.936;2023-05-29T01:09:17;97060;;;11.3;54
68489;BME280;55481;48.764;8.936;2023-05-29T01:16:53;97060;;;10.9;55
68489;BME280;55481;48.764;8.936;2023-05-29T01:19:36;97060;;;10.8;55
68489;BME280;55481;48.764;8.936;2023-05-29T01:21:56;97060;;;10.7;55.5
68489;BME280;55481;48.764;8.936;2023-05-29T01:24:22;97060;;;10.7;55.5
68489;BME280;55481;48.764;8.936;2023-05-29T01:27:00;97060;;;10.8;55.5
68489;BME280;55481;48.764;8.936;2023-05-29T01:29:26;97060;;;11;55
68489;BME280;55481;48.764;8.936;2023-05-29T01:31:54;97050;;;10.8;55
68489;BME280;55481;48.764;8.936;2023-05-29T01:34:25;97050;;;10.8;55
68489;BME280;55481;48.764;8.936;2023-05-29T01:36:49;97050;;;10.8;55
68489;BME280;55481;48.764;8.936;2023-05-29T01:39:20;97050;;;10.8;55
68489;BME280;55481;48.764;8.936;2023-05-29T01:41:51;97050;;;10.7;55.5
68489;BME280;55481;48.764;8.936;2023-05-29T01:44:22;97050;;;10.6;55.5
68489;BME280;55481;48.764;8.936;2023-05-29T01:49:17;97060;;;10.9;55
68489;BME280;55481;48.764;8.936;2023-05-29T01:51:48;97050;;;10.8;55
68489;BME280;55481;48.764;8.936;2023-05-29T01:54:19;97060;;;10.7;55.5
68489;BME280;55481;48.764;8.936;2023-05-29T02:01:52;97070;;;10.9;55
68489;BME280;55481;48.764;8.936;2023-05-29T02:04:22;97070;;;10.8;55.5
68489;BME280;55481;48.764;8.936;2023-05-29T02:12:07;97060;;;10.5;56
68489;BME280;55481;48.764;8.936;2023-05-29T02:14:37;97060;;;10.5;56
68489;BME280;55481;48.764;8.936;2023-05-29T02:17:07;97060;;;10.4;56
68489;BME280;55481;48.764;8.936;2023-05-29T02:19:39;97060;;;10.3;56
68489;BME280;55481;48.764;8.936;2023-05-29T02:27:11;97060;;;10.3;56.5
68489;BME280;55481;48.764;8.936;2023-05-29T02:29:41;97060;;;10.4;56
68489;BME280;55481;48.764;8.936;2023-05-29T02:32:05;97060;;;10.3;56
68489;BME280;55481;48.764;8.936;2023-05-29T02:34:37;97060;;;10.4;56
68489;BME280;55481;48.764;8.936;2023-05-29T02:37:07;97050;;;10.2;56.5
68489;BME280;55481;48.764;8.936;2023-05-29T02:39:38;97060;;;10;57
68489;BME280;55481;48.764;8.936;2023-05-29T02:42:09;97060;;;9.9;57
68489;BME280;55481;48.764;8.936;2023-05-29T02:44:40;97060;;;10;57
68489;BME280;55481;48.764;8.936;2023-05-29T02:47:18;97060;;;10.1;56.5
68489;BME280;55481;48.764;8.936;2023-05-29T02:52:13;97050;;;9.9;57
68489;BME280;55481;48.764;8.936;2023-05-29T02:54:44;97050;;;10;57
68489;BME280;55481;48.764;8.936;2023-05-29T02:57:15;97050;;;10.1;56.5
68489;BME280;55481;48.764;8.936;2023-05-29T02:59:47;97050;;;10.1;56.5
68489;BME280;55481;48.764;8.936;2023-05-29T03:02:17;97040;;;10;57
68489;BME280;55481;48.764;8.936;2023-05-29T03:04:48;97050;;;10;57
68489;BME280;55481;48.764;8.936;2023-05-29T03:07:19;97050;;;10;56.5
68489;BME280;55481;48.764;8.936;2023-05-29T03:09:50;97040;;;9.9;57
68489;BME280;55481;48.764;8.936;2023-05-29T03:12:21;97040;;;9.9;57
68489;BME280;55481;48.764;8.936;2023-05-29T03:14:59;97050;;;9.9;57
68489;BME280;55481;48.764;8.936;2023-05-29T03:17:29;97050;;;9.8;57
68489;BME280;55481;48.764;8.936;2023-05-29T03:22:25;97050;;;9.6;57.5
68489;BME280;55481;48.764;8.936;2023-05-29T03:24:56;97050;;;9.5;58
68489;BME280;55481;48.764;8.936;2023-05-29T03:30:11;97050;;;9.4;58
68489;BME280;55481;48.764;8.936;2023-05-29T03:32:34;97050;;;9.6;57.5
68489;BME280;55481;48.764;8.936;2023-05-29T03:34:58;97050;;;9.6;57.5
68489;BME280;55481;48.764;8.936;2023-05-29T03:37:29;97050;;;9.5;57.5
68489;BME280;55481;48.764;8.936;2023-05-29T03:40:00;97050;;;9.5;57.5
68489;BME280;55481;48.764;8.936;2023-05-29T03:42:38;97050;;;9.7;57.5
68489;BME280;55481;48.764;8.936;2023-05-29T03:45:22;97050;;;9.8;57
68489;BME280;55481;48.764;8.936;2023-05-29T03:47:45;97050;;;9.8;57
68489;BME280;55481;48.764;8.936;2023-05-29T03:52:39;97050;;;9.5;57.5
68489;BME280;55481;48.764;8.936;2023-05-29T03:55:10;97050;;;9.6;57.5
68489;BME280;55481;48.764;8.936;2023-05-29T03:57:40;97060;;;9.5;58
68489;BME280;55481;48.764;8.936;2023-05-29T04:00:11;97060;;;9.4;58
68489;BME280;55481;48.764;8.936;2023-05-29T04:05:04;97070;;;9.4;58
68489;BME280;55481;48.764;8.936;2023-05-29T04:07:37;97070;;;9.4;58
68489;BME280;55481;48.764;8.936;2023-05-29T04:10:13;97080;;;9.4;58
68489;BME280;55481;48.764;8.936;2023-05-29T04:15:08;97070;;;9.7;57.5
68489;BME280;55481;48.764;8.936;2023-05-29T04:20:16;97070;;;9.8;57
68489;BME280;55481;48.764;8.936;2023-05-29T04:22:47;97070;;;9.8;57.5
68489;BME280;55481;48.764;8.936;2023-05-29T04:27:40;97090;;;9.9;57
68489;BME280;55481;48.764;8.936;2023-05-29T04:30:12;97090;;;9.9;57
68489;BME280;55481;48.764;8.936;2023-05-29T04:32:42;97090;;;9.9;57.5
68489;BME280;55481;48.764;8.936;2023-05-29T04:35:14;97100;;;10;57
68489;BME280;55481;48.764;8.936;2023-05-29T04:37:51;97100;;;10.2;56.5
68489;BME280;55481;48.764;8.936;2023-05-29T04:42:59;97100;;;10.2;57
68489;BME280;55481;48.764;8.936;2023-05-29T04:47:53;97110;;;10.4;56.5
68489;BME280;55481;48.764;8.936;2023-05-29T04:50:23;97110;;;10.6;56
68489;BME280;55481;48.764;8.936;2023-05-29T04:55:18;97120;;;10.6;56.5
68489;BME280;55481;48.764;8.936;2023-05-29T04:57:48;97120;;;10.6;56.5
68489;BME280;55481;48.764;8.936;2023-05-29T05:00:27;97120;;;10.7;56.5
68489;BME280;55481;48.764;8.936;2023-05-29T05:02:50;97120;;;10.8;56.5
68489;BME280;55481;48.764;8.936;2023-05-29T05:05:29;97120;;;10.9;56
68489;BME280;55481;48.764;8.936;2023-05-29T05:13:01;97120;;;11;56.5
68489;BME280;55481;48.764;8.936;2023-05-29T05:15:31;97120;;;11.2;56
68489;BME280;55481;48.764;8.936;2023-05-29T05:18:01;97120;;;11.3;55.5
68489;BME280;55481;48.764;8.936;2023-05-29T05:20:31;97120;;;11.4;55.5
68489;BME280;55481;48.764;8.936;2023-05-29T05:22:55;97120;;;11.5;55.5
68489;BME280;55481;48.764;8.936;2023-05-29T05:25:26;97120;;;11.6;55.5
68489;BME280;55481;48.764;8.936;2023-05-29T05:28:04;97120;;;11.6;55.5
68489;BME280;55481;48.764;8.936;2023-05-29T05:33:00;97120;;;11.9;55
68489;BME280;55481;48.764;8.936;2023-05-29T05:35:30;97120;;;12;55
68489;BME280;55481;48.764;8.936;2023-05-29T05:38:01;97110;;;12.1;55
68489;BME280;55481;48.764;8.936;2023-05-29T05:40:32;97120;;;12.2;55
68489;BME280;55481;48.764;8.936;2023-05-29T05:43:03;97110;;;12.3;55
68489;BME280;55481;48.764;8.936;2023-05-29T05:45:34;97120;;;12.5;54.5
68489;BME280;55481;48.764;8.936;2023-05-29T05:50:35;97110;;;12.9;54
68489;BME280;55481;48.764;8.936;2023-05-29T05:53:06;97120;;;13.2;53.5
68489;BME280;55481;48.764;8.936;2023-05-29T05:55:44;97120;;;13.3;53.5
68489;BME280;55481;48.764;8.936;2023-05-29T06:03:16;97130;;;13.6;53.5
68489;BME280;55481;48.764;8.936;2023-05-29T06:05:48;97140;;;13.6;53.5
68489;BME280;55481;48.764;8.936;2023-05-29T06:10:41;97130;;;14.1;53
68489;BME280;55481;48.764;8.936;2023-05-29T06:15:50;97130;;;14.3;53
68489;BME280;55481;48.764;8.936;2023-05-29T06:23:21;97130;;;14.7;52.5
68489;BME280;55481;48.764;8.936;2023-05-29T06:25:51;97130;;;14.8;52.5
68489;BME280;55481;48.764;8.936;2023-05-29T06:28:15;97140;;;15;52
68489;BME280;55481;48.764;8.936;2023-05-29T06:30:46;97140;;;15;52
68489;BME280;55481;48.764;8.936;2023-05-29T06:33:18;97140;;;15.3;52
68489;BME280;55481;48.764;8.936;2023-05-29T06:35:48;97150;;;15.5;51.5
68489;BME280;55481;48.764;8.936;2023-05-29T06:38:19;97150;;;15.7;51.5
68489;BME280;55481;48.764;8.936;2023-05-29T06:40:50;97150;;;15.9;51.5
68489;BME280;55481;48.764;8.936;2023-05-29T06:43:28;97150;;;16.1;51
68489;BME280;55481;48.764;8.936;2023-05-29T06:48:23;97150;;;16.5;51
68489;BME280;55481;48.764;8.936;2023-05-29T06:50:58;97150;;;16.6;51
68489;BME280;55481;48.764;8.936;2023-05-29T06:53:26;97150;;;16.8;50.5
68489;BME280;55481;48.764;8.936;2023-05-29T06:55:56;97150;;;17;50.5
68489;BME280;55481;48.764;8.936;2023-05-29T06:58:27;97160;;;17.1;50.5
68489;BME280;55481;48.764;8.936;2023-05-29T07:00:58;97170;;;17.2;50.5
68489;BME280;55481;48.764;8.936;2023-05-29T07:03:29;97160;;;17.3;50.5
68489;BME280;55481;48.764;8.936;2023-05-29T07:05:59;97170;;;17.1;51
68489;BME280;55481;48.764;8.936;2023-05-29T07:08:37;97170;;;17.1;51
68489;BME280;55481;48.764;8.936;2023-05-29T07:11:08;97180;;;17.2;51
68489;BME280;55481;48.764;8.936;2023-05-29T07:13:32;97180;;;17.3;51
68489;BME280;55481;48.764;8.936;2023-05-29T07:16:03;97190;;;17.5;50.5
68489;BME280;55481;48.764;8.936;2023-05-29T07:18:34;97180;;;17.6;50.5
68489;BME280;55481;48.764;8.936;2023-05-29T07:21:05;97180;;;17.8;50
68489;BME280;55481;48.764;8.936;2023-05-29T07:23:29;97170;;;17.7;50.5
68489;BME280;55481;48.764;8.936;2023-05-29T07:26:00;97180;;;17.6;50.5
68489;BME280;55481;48.764;8.936;2023-05-29T07:28:30;97170;;;17.9;50
68489;BME280;55481;48.764;8.936;2023-05-29T07:31:01;97170;;;18.1;50
68489;BME280;55481;48.764;8.936;2023-05-29T07:43:41;97180;;;18.2;50
68489;BME280;55481;48.764;8.936;2023-05-29T07:46:12;97180;;;18.3;50
68489;BME280;55481;48.764;8.936;2023-05-29T07:48:57;97180;;;18.5;49.5
68489;BME280;55481;48.764;8.936;2023-05-29T07:51:15;97180;;;18.8;49.5
68489;BME280;55481;48.764;8.936;2023-05-29T07:53:46;97170;;;19.1;49
68489;BME280;55481;48.764;8.936;2023-05-29T07:56:17;97180;;;19.2;49
68489;BME280;55481;48.764;8.936;2023-05-29T08:01:11;97170;;;19.3;49
68489;BME280;55481;48.764;8.936;2023-05-29T08:08:44;97170;;;19.7;48.5
68489;BME280;55481;48.764;8.936;2023-05-29T08:11:15;97170;;;19.8;48.5
68489;BME280;55481;48.764;8.936;2023-05-29T08:13:45;97170;;;19.9;48.5
68489;BME280;55481;48.764;8.936;2023-05-29T08:18:56;97170;;;20.1;48.5
68489;BME280;55481;48.764;8.936;2023-05-29T08:21:24;97170;;;20.4;48
68489;BME280;55481;48.764;8.936;2023-05-29T08:26:23;97170;;;20.6;48
68489;BME280;55481;48.764;8.936;2023-05-29T08:28:50;97170;;;20;49
68489;BME280;55481;48.764;8.936;2023-05-29T08:38:53;97170;;;21.1;47.5
68489;BME280;55481;48.764;8.936;2023-05-29T08:41:25;97170;;;21.1;47.5
68489;BME280;55481;48.764;8.936;2023-05-29T08:44:08;97170;;;21.2;47.5
68489;BME280;55481;48.764;8.936;2023-05-29T08:46:38;97170;;;21.1;47.5
68489;BME280;55481;48.764;8.936;2023-05-29T08:51:32;97170;;;20.9;48
68489;BME280;55481;48.764;8.936;2023-05-29T08:54:03;97170;;;21;48
68489;BME280;55481;48.764;8.936;2023-05-29T08:56:34;97170;;;21.2;47.5
68489;BME280;55481;48.764;8.936;2023-05-29T09:04:00;97170;;;21.7;47
68489;BME280;55481;48.764;8.936;2023-05-29T09:06:31;97170;;;21.8;47
68489;BME280;55481;48.764;8.936;2023-05-29T09:09:03;97180;;;22;46.5
68489;BME280;55481;48.764;8.936;2023-05-29T09:11:32;97180;;;21.8;47
68489;BME280;55481;48.764;8.936;2023-05-29T09:14:05;97180;;;21.9;47
68489;BME280;55481;48.764;8.936;2023-05-29T09:16:39;97180;;;21.8;47
68489;BME280;55481;48.764;8.936;2023-05-29T09:19:05;97180;;;21.9;47
68489;BME280;55481;48.764;8.936;2023-05-29T09:21:35;97180;;;22.1;46.5
68489;BME280;55481;48.764;8.936;2023-05-29T09:24:13;97180;;;22.1;46.5
68489;BME280;55481;48.764;8.936;2023-05-29T09:26:48;97180;;;22.1;47
68489;BME280;55481;48.764;8.936;2023-05-29T09:29:15;97180;;;22.4;46.5
68489;BME280;55481;48.764;8.936;2023-05-29T09:31:52;97180;;;22.3;46.5
68489;BME280;55481;48.764;8.936;2023-05-29T09:34:23;97180;;;22.4;46.5
68489;BME280;55481;48.764;8.936;2023-05-29T09:41:56;97200;;;22.3;47
68489;BME280;55481;48.764;8.936;2023-05-29T09:44:32;97190;;;22.1;47
68489;BME280;55481;48.764;8.936;2023-05-29T09:49:20;97190;;;22.5;46.5
68489;BME280;55481;48.764;8.936;2023-05-29T09:51:52;97190;;;22.9;45.5
68489;BME280;55481;48.764;8.936;2023-05-29T09:54:22;97190;;;23.2;45.5
68489;BME280;55481;48.764;8.936;2023-05-29T09:56:53;97180;;;23.2;45.5
68489;BME280;55481;48.764;8.936;2023-05-29T09:59:30;97180;;;23.1;45.5
68489;BME280;55481;48.764;8.936;2023-05-29T10:01:59;97190;;;23.1;46
68489;BME280;55481;48.764;8.936;2023-05-29T10:04:20;97180;;;23.1;46
68489;BME280;55481;48.764;8.936;2023-05-29T10:06:50;97180;;;23.2;46
68489;BME280;55481;48.764;8.936;2023-05-29T10:09:20;97170;;;23.4;45.5
68489;BME280;55481;48.764;8.936;2023-05-29T10:11:51;97170;;;23.5;45.5
68489;BME280;55481;48.764;8.936;2023-05-29T10:14:22;97170;;;23.7;45
68489;BME280;55481;48.764;8.936;2023-05-29T10:16:53;97180;;;23.4;45.5
68489;BME280;55481;48.764;8.936;2023-05-29T10:19:25;97180;;;23.5;45.5
68489;BME280;55481;48.764;8.936;2023-05-29T10:21:55;97170;;;23.4;46
68489;BME280;55481;48.764;8.936;2023-05-29T10:29:36;97160;;;23.8;45
68489;BME280;55481;48.764;8.936;2023-05-29T10:32:01;97160;;;24;45
68489;BME280;55481;48.764;8.936;2023-05-29T10:34:33;97160;;;23.7;45.5
68489;BME280;55481;48.764;8.936;2023-05-29T10:37:01;97160;;;23.5;46
68489;BME280;55481;48.764;8.936;2023-05-29T10:39:36;97160;;;23.8;45
68489;BME280;55481;48.764;8.936;2023-05-29T10:42:40;97160;;;24.4;44.5
68489;BME280;55481;48.764;8.936;2023-05-29T10:47:04;97160;;;24.4;44.5
68489;BME280;55481;48.764;8.936;2023-05-29T10:49:33;97150;;;24.5;44.5
68489;BME280;55481;48.764;8.936;2023-05-29T10:57:07;97160;;;24.9;44
68489;BME280;55481;48.764;8.936;2023-05-29T10:59:37;97150;;;24.8;44
68489;BME280;55481;48.764;8.936;2023-05-29T11:09:25;97140;;;25.2;44.5
68489;BME280;55481;48.764;8.936;2023-05-29T11:16:09;97140;;;25.2;44
68489;BME280;55481;48.764;8.936;2023-05-29T11:18:39;97140;;;25.3;44
68489;BME280;55481;48.764;8.936;2023-05-29T11:21:06;97150;;;25.1;44.5
68489;BME280;55481;48.764;8.936;2023-05-29T11:23:37;97140;;;25.5;44
68489;BME280;55481;48.764;8.936;2023-05-29T11:26:08;97140;;;26.1;43
68489;BME280;55481;48.764;8.936;2023-05-29T11:28:38;97140;;;26.7;42
68489;BME280;55481;48.764;8.936;2023-05-29T11:33:40;97140;;;28.1;39.5
68489;BME280;55481;48.764;8.936;2023-05-29T11:36:11;97140;;;28.5;39
68489;BME280;55481;48.764;8.936;2023-05-29T11:46:16;97110;;;32.5;33
68489;BME280;55481;48.764;8.936;2023-05-29T11:51:15;97120;;;32.7;33
68489;BME280;55481;48.764;8.936;2023-05-29T11:53:59;97130;;;32.5;33.5
68489;BME280;55481;48.764;8.936;2023-05-29T11:56:29;97120;;;33.2;33
68489;BME280;55481;48.764;8.936;2023-05-29T12:01:24;97130;;;31.6;35.5
68489;BME280;55481;48.764;8.936;2023-05-29T12:03:54;97130;;;31;36.5
68489;BME280;55481;48.764;8.936;2023-05-29T12:06:33;97140;;;30.3;37.5
68489;BME280;55481;48.764;8.936;2023-05-29T12:08:56;97130;;;30.6;37
68489;BME280;55481;48.764;8.936;2023-05-29T12:11:34;97130;;;30.6;37
68489;BME280;55481;48.764;8.936;2023-05-29T12:14:05;97140;;;30.1;37.5
68489;BME280;55481;48.764;8.936;2023-05-29T12:16:41;97130;;;30.4;37.5
68489;BME280;55481;48.764;8.936;2023-05-29T12:18:58;97140;;;30.1;37.5
68489;BME280;55481;48.764;8.936;2023-05-29T12:21:29;97140;;;30.5;37
68489;BME280;55481;48.764;8.936;2023-05-29T12:24:01;97140;;;30.3;37.5
68489;BME280;55481;48.764;8.936;2023-05-29T12:26:32;97130;;;30.4;37
68489;BME280;55481;48.764;8.936;2023-05-29T12:29:03;97130;;;30.9;36.5
68489;BME280;55481;48.764;8.936;2023-05-29T12:31:33;97130;;;30.6;37
68489;BME280;55481;48.764;8.936;2023-05-29T12:41:33;97130;;;30.6;36.5
68489;BME280;55481;48.764;8.936;2023-05-29T12:44:02;97140;;;30.6;37
68489;BME280;55481;48.764;8.936;2023-05-29T12:46:35;97140;;;30.9;36.5
68489;BME280;55481;48.764;8.936;2023-05-29T12:49:17;97150;;;30.4;37
68489;BME280;55481;48.764;8.936;2023-05-29T12:51:33;97150;;;30.4;36.5
68489;BME280;55481;48.764;8.936;2023-05-29T12:54:11;97140;;;30.6;36.5
68489;BME280;55481;48.764;8.936;2023-05-29T12:56:42;97130;;;31;35.5
68489;BME280;55481;48.764;8.936;2023-05-29T12:59:19;97140;;;30.9;35.5
68489;BME280;55481;48.764;8.936;2023-05-29T13:01:50;97130;;;31.1;35.5
68489;BME280;55481;48.764;8.936;2023-05-29T13:07:06;97150;;;30.4;36
68489;BME280;55481;48.764;8.936;2023-05-29T13:11:53;97140;;;30.5;35.5
68489;BME280;55481;48.764;8.936;2023-05-29T13:14:23;97130;;;31;35
68489;BME280;55481;48.764;8.936;2023-05-29T13:16:47;97130;;;31.1;34.5
68489;BME280;55481;48.764;8.936;2023-05-29T13:19:19;97120;;;30.8;35
68489;BME280;55481;48.764;8.936;2023-05-29T13:21:51;97130;;;30.8;34.5
68489;BME280;55481;48.764;8.936;2023-05-29T13:24:20;97130;;;30.8;34.5
68489;BME280;55481;48.764;8.936;2023-05-29T13:26:51;97130;;;30.7;34.5
68489;BME280;55481;48.764;8.936;2023-05-29T13:29:30;97130;;;30.8;34.5
68489;BME280;55481;48.764;8.936;2023-05-29T13:34:24;97120;;;31.2;33.5
68489;BME280;55481;48.764;8.936;2023-05-29T13:37:02;97120;;;31.2;33.5
68489;BME280;55481;48.764;8.936;2023-05-29T13:39:31;97120;;;31.5;33
68489;BME280;55481;48.764;8.936;2023-05-29T13:42:02;97120;;;31.3;33
68489;BME280;55481;48.764;8.936;2023-05-29T13:44:32;97120;;;31.4;33
68489;BME280;55481;48.764;8.936;2023-05-29T13:47:03;97110;;;31.4;33
68489;BME280;55481;48.764;8.936;2023-05-29T13:49:40;97120;;;31.3;33
68489;BME280;55481;48.764;8.936;2023-05-29T13:52:03;97120;;;30.8;33.5
68489;BME280;55481;48.764;8.936;2023-05-29T13:54:34;97110;;;31.1;33
68489;BME280;55481;48.764;8.936;2023-05-29T13:57:05;97110;;;31.2;32.5
68489;BME280;55481;48.764;8.936;2023-05-29T14:02:01;97110;;;30.9;33
68489;BME280;55481;48.764;8.936;2023-05-29T14:04:32;97110;;;31;32.5
68489;BME280;55481;48.764;8.936;2023-05-29T14:07:02;97110;;;31.5;31.5
68489;BME280;55481;48.764;8.936;2023-05-29T14:09:40;97110;;;31.5;31.5
68489;BME280;55481;48.764;8.936;2023-05-29T14:12:05;97100;;;31.4;32
68489;BME280;55481;48.764;8.936;2023-05-29T14:14:35;97100;;;32.6;30.5
68489;BME280;55481;48.764;8.936;2023-05-29T14:17:07;97100;;;32.4;30.5
68489;BME280;55481;48.764;8.936;2023-05-29T14:19:37;97100;;;31.9;31
68489;BME280;55481;48.764;8.936;2023-05-29T14:27:03;97100;;;32.4;30.5
68489;BME280;55481;48.764;8.936;2023-05-29T14:29:35;97090;;;32.5;30.5
68489;BME280;55481;48.764;8.936;2023-05-29T14:32:05;97100;;;32.2;30.5
68489;BME280;55481;48.764;8.936;2023-05-29T14:34:36;97090;;;32.4;30.5
68489;BME280;55481;48.764;8.936;2023-05-29T14:37:06;97090;;;32.4;30.5
68489;BME280;55481;48.764;8.936;2023-05-29T14:39:38;97100;;;32;31
68489;BME280;55481;48.764;8.936;2023-05-29T14:42:08;97090;;;31.9;31
68489;BME280;55481;48.764;8.936;2023-05-29T14:44:39;97100;;;31.9;31
68489;BME280;55481;48.764;8.936;2023-05-29T14:47:09;97100;;;32.2;30.5
68489;BME280;55481;48.764;8.936;2023-05-29T14:59:50;97100;;;32.6;29.5
68489;BME280;55481;48.764;8.936;2023-05-29T15:02:21;97090;;;32.5;29.5
68489;BME280;55481;48.764;8.936;2023-05-29T15:04:52;97100;;;32;30
68489;BME280;55481;48.764;8.936;2023-05-29T15:07:16;97090;;;32.2;30
68489;BME280;55481;48.764;8.936;2023-05-29T15:09:49;97090;;;31.8;30.5
68489;BME280;55481;48.764;8.936;2023-05-29T15:12:17;97090;;;30.3;31.5
68489;BME280;55481;48.764;8.936;2023-05-29T15:14:48;97100;;;28.7;33.5
68489;BME280;55481;48.764;8.936;2023-05-29T15:17:19;97100;;;28.2;34
68489;BME280;55481;48.764;8.936;2023-05-29T15:24:51;97090;;;27.2;34.5
68489;BME280;55481;48.764;8.936;2023-05-29T15:27:22;97080;;;26.8;34.5
68489;BME280;55481;48.764;8.936;2023-05-29T15:29:52;97080;;;26.6;34.5
68489;BME280;55481;48.764;8.936;2023-05-29T15:32:34;97090;;;26.5;34.5
68489;BME280;55481;48.764;8.936;2023-05-29T15:34:55;97090;;;26.2;34.5
68489;BME280;55481;48.764;8.936;2023-05-29T15:37:26;97090;;;26;34.5
68489;BME280;55481;48.764;8.936;2023-05-29T15:42:26;97090;;;25.8;34.5
68489;BME280;55481;48.764;8.936;2023-05-29T15:44:57;97090;;;25.6;34.5
68489;BME280;55481;48.764;8.936;2023-05-29T15:55:01;97080;;;25.2;35
68489;BME280;55481;48.764;8.936;2023-05-29T15:57:33;97080;;;25.1;34.5
68489;BME280;55481;48.764;8.936;2023-05-29T16:02:33;97080;;;25;34.5
68489;BME280;55481;48.764;8.936;2023-05-29T16:05:17;97080;;;24.9;34.5
68489;BME280;55481;48.764;8.936;2023-05-29T16:07:47;97080;;;25;34.5
68489;BME280;55481;48.764;8.936;2023-05-29T16:12:42;97070;;;24.8;34.5
68489;BME280;55481;48.764;8.936;2023-05-29T16:15:14;97080;;;24.7;35
68489;BME280;55481;48.764;8.936;2023-05-29T16:17:49;97070;;;24.7;34.5
68489;BME280;55481;48.764;8.936;2023-05-29T16:20:20;97080;;;24.7;34.5
68489;BME280;55481;48.764;8.936;2023-05-29T16:27:53;97070;;;24.5;35
68489;BME280;55481;48.764;8.936;2023-05-29T16:30:23;97070;;;24.4;35
68489;BME280;55481;48.764;8.936;2023-05-29T16:35:17;97070;;;24.4;35
68489;BME280;55481;48.764;8.936;2023-05-29T16:37:48;97070;;;24.4;35
68489;BME280;55481;48.764;8.936;2023-05-29T16:40:19;97070;;;24.4;35
68489;BME280;55481;48.764;8.936;2023-05-29T16:47:44;97070;;;24.2;35
68489;BME280;55481;48.764;8.936;2023-05-29T16:52:46;97080;;;24.1;35
68489;BME280;55481;48.764;8.936;2023-05-29T16:55:17;97070;;;24.1;35
68489;BME280;55481;48.764;8.936;2023-05-29T16:58:04;97080;;;23.9;35
68489;BME280;55481;48.764;8.936;2023-05-29T17:00:31;97080;;;23.9;35
68489;BME280;55481;48.764;8.936;2023-05-29T17:02:57;97080;;;23.9;35
68489;BME280;55481;48.764;8.936;2023-05-29T17:05:26;97070;;;23.8;35
68489;BME280;55481;48.764;8.936;2023-05-29T17:07:57;97080;;;23.8;35
68489;BME280;55481;48.764;8.936;2023-05-29T17:10:31;97080;;;23.8;35
68489;BME280;55481;48.764;8.936;2023-05-29T17:13:01;97080;;;23.7;35.5
68489;BME280;55481;48.764;8.936;2023-05-29T17:15:30;97080;;;23.6;35.5
68489;BME280;55481;48.764;8.936;2023-05-29T17:18:00;97080;;;23.6;35.5
68489;BME280;55481;48.764;8.936;2023-05-29T17:20:38;97090;;;23.6;35.5
68489;BME280;55481;48.764;8.936;2023-05-29T17:23:10;97080;;;23.5;35.5
68489;BME280;55481;48.764;8.936;2023-05-29T17:28:05;97090;;;23.5;35.5
68489;BME280;55481;48.764;8.936;2023-05-29T17:30:36;97100;;;23.4;35.5
68489;BME280;55481;48.764;8.936;2023-05-29T17:33:07;97090;;;23.3;35.5
68489;BME280;55481;48.764;8.936;2023-05-29T17:35:37;97090;;;23.2;36
68489;BME280;55481;48.764;8.936;2023-05-29T17:38:08;97090;;;23.2;36
68489;BME280;55481;48.764;8.936;2023-05-29T17:40:39;97100;;;23.2;36
68489;BME280;55481;48.764;8.936;2023-05-29T17:43:09;97100;;;23.1;36
68489;BME280;55481;48.764;8.936;2023-05-29T17:45:41;97100;;;23.1;36
68489;BME280;55481;48.764;8.936;2023-05-29T17:48:12;97100;;;23;36
68489;BME280;55481;48.764;8.936;2023-05-29T17:50:50;97100;;;23;36
68489;BME280;55481;48.764;8.936;2023-05-29T17:53:21;97100;;;23;36
68489;BME280;55481;48.764;8.936;2023-05-29T17:58:16;97110;;;22.8;36
68489;BME280;55481;48.764;8.936;2023-05-29T18:00:47;97110;;;22.8;36
68489;BME280;55481;48.764;8.936;2023-05-29T18:05:55;97100;;;22.6;36.5
68489;BME280;55481;48.764;8.936;2023-05-29T18:08:25;97100;;;22.5;36.5
68489;BME280;55481;48.764;8.936;2023-05-29T18:10:49;97100;;;22.4;36.5
68489;BME280;55481;48.764;8.936;2023-05-29T18:13:20;97110;;;22.3;36.5
68489;BME280;55481;48.764;8.936;2023-05-29T18:15:51;97110;;;22.2;36.5
68489;BME280;55481;48.764;8.936;2023-05-29T18:23:16;97110;;;22;37
68489;BME280;55481;48.764;8.936;2023-05-29T18:25:48;97110;;;21.9;37
68489;BME280;55481;48.764;8.936;2023-05-29T18:28:18;97110;;;21.7;37
68489;BME280;55481;48.764;8.936;2023-05-29T18:33:26;97120;;;21.6;37.5
68489;BME280;55481;48.764;8.936;2023-05-29T18:35:57;97110;;;21.6;37.5
68489;BME280;55481;48.764;8.936;2023-05-29T18:40:53;97120;;;21.4;37.5
68489;BME280;55481;48.764;8.936;2023-05-29T18:43:22;97120;;;21.3;37.5
68489;BME280;55481;48.764;8.936;2023-05-29T18:50:55;97120;;;20.9;38
68489;BME280;55481;48.764;8.936;2023-05-29T18:53:32;97120;;;20.8;38
68489;BME280;55481;48.764;8.936;2023-05-29T18:55:57;97120;;;20.8;38